Time;durP1;ratioP1;P1;durP2;ratioP2;P2;SDS_P1;SDS_P2;PMS_P1;PMS_P2;Temp;Humidity;BMP_temperature;BMP_pressure;BME280_temperature;BME280_humidity;BME280_pressure;Samples;Min_cycle;Max_cycle;Signal;HPM_P1;HPM_P2
2023/05/06 00:03:06;;;;;;;;;;;18.80;65.20;;;;;;10247688;28;94446;-67
2023/05/06 00:08:08;;;;;;;;;;;18.80;65.20;;;;;;10247805;28;94436;-66
2023/05/06 00:13:10;;;;;;;;;;;18.80;65.20;;;;;;10246617;28;96998;-67
2023/05/06 00:18:13;;;;;;;;;;;18.70;65.30;;;;;;10254337;28;94655;-66
2023/05/06 00:23:15;;;;;;;;;;;18.80;65.20;;;;;;10254976;28;92881;-66
2023/05/06 00:28:17;;;;;;;;;;;18.80;65.10;;;;;;10253961;28;93857;-67
2023/05/06 00:33:18;;;;;;;;;;;18.70;65.00;;;;;;10254208;28;94401;-67
2023/05/06 00:38:20;;;;;;;;;;;18.80;65.00;;;;;;10253539;28;93911;-66
2023/05/06 00:43:22;;;;;;;;;;;18.80;65.00;;;;;;10253564;28;94300;-67
2023/05/06 00:48:24;;;;;;;;;;;18.70;64.90;;;;;;10254356;28;93733;-66
2023/05/06 00:53:26;;;;;;;;;;;18.80;64.90;;;;;;10236251;28;93292;-67
2023/05/06 00:58:28;;;;;;;;;;;18.70;64.70;;;;;;10234119;28;93503;-67
2023/05/06 01:03:30;;;;;;;;;;;18.80;64.80;;;;;;10250518;28;95830;-66
2023/05/06 01:08:39;;;;;;;;;;;18.80;64.70;;;;;;10251981;28;92603;-67
2023/05/06 01:13:45;;;;;;;;;;;18.80;64.70;;;;;;10252803;28;93421;-67
2023/05/06 01:18:48;;;;;;;;;;;18.80;64.50;;;;;;10251972;28;93835;-67
2023/05/06 01:23:51;;;;;;;;;;;18.80;64.50;;;;;;10233652;28;93776;-67
2023/05/06 01:28:53;;;;;;;;;;;18.80;64.40;;;;;;10250913;28;93110;-66
2023/05/06 01:34:03;;;;;;;;;;;18.80;64.30;;;;;;10251630;28;93550;-65
2023/05/06 01:39:08;;;;;;;;;;;18.80;64.30;;;;;;10252958;28;92387;-66
2023/05/06 01:44:10;;;;;;;;;;;18.70;64.20;;;;;;10252023;28;94443;-66
2023/05/06 01:49:13;;;;;;;;;;;18.80;64.20;;;;;;10251605;28;94436;-66
2023/05/06 01:54:15;;;;;;;;;;;18.70;64.10;;;;;;10249323;28;97471;-65
2023/05/06 01:59:16;;;;;;;;;;;18.70;64.00;;;;;;10251230;28;93610;-66
2023/05/06 02:04:18;;;;;;;;;;;18.70;64.00;;;;;;10251279;28;94006;-65
2023/05/06 02:09:20;;;;;;;;;;;18.70;64.00;;;;;;10250634;28;94375;-65
2023/05/06 02:14:22;;;;;;;;;;;18.70;64.00;;;;;;10250603;28;93485;-65
2023/05/06 02:19:24;;;;;;;;;;;18.70;63.90;;;;;;10249767;28;93961;-67
2023/05/06 02:24:26;;;;;;;;;;;18.70;63.90;;;;;;10250649;28;93391;-67
2023/05/06 02:29:28;;;;;;;;;;;18.70;63.90;;;;;;10233214;28;92494;-66
2023/05/06 02:34:30;;;;;;;;;;;18.60;63.80;;;;;;10248870;28;94449;-66
2023/05/06 02:39:31;;;;;;;;;;;18.60;63.80;;;;;;10249804;28;94100;-66
2023/05/06 02:44:33;;;;;;;;;;;18.60;63.80;;;;;;10229314;28;95823;-66
2023/05/06 02:49:35;;;;;;;;;;;18.60;63.70;;;;;;10249091;28;92694;-67
2023/05/06 02:54:36;;;;;;;;;;;18.60;63.70;;;;;;10232003;28;93510;-66
2023/05/06 02:59:40;;;;;;;;;;;18.60;63.70;;;;;;10246585;28;114056;-67
2023/05/06 03:04:41;;;;;;;;;;;18.60;63.70;;;;;;10249286;28;93525;-67
2023/05/06 03:09:43;;;;;;;;;;;18.60;63.70;;;;;;10248814;28;93456;-67
2023/05/06 03:14:45;;;;;;;;;;;18.50;63.60;;;;;;10246574;28;93360;-66
2023/05/06 03:19:47;;;;;;;;;;;18.50;63.60;;;;;;10249323;28;93709;-66
2023/05/06 03:24:49;;;;;;;;;;;18.50;63.60;;;;;;10248535;28;94316;-65
2023/05/06 03:29:51;;;;;;;;;;;18.50;63.60;;;;;;10248174;28;94329;-66
2023/05/06 03:34:53;;;;;;;;;;;18.50;63.60;;;;;;10243987;28;96752;-67
2023/05/06 03:39:55;;;;;;;;;;;18.50;63.60;;;;;;10229898;28;93324;-66
2023/05/06 03:44:57;;;;;;;;;;;18.50;63.60;;;;;;10228863;28;93849;-66
2023/05/06 05:07:07;;;;;;;;;;;18.50;63.20;;;;;;10291431;28;93406;-65
2023/05/06 05:12:09;;;;;;;;;;;18.50;63.20;;;;;;10274911;28;93998;-65
2023/05/06 05:17:11;;;;;;;;;;;18.40;63.10;;;;;;10290402;28;93773;-65
2023/05/06 05:22:12;;;;;;;;;;;18.40;63.20;;;;;;10288421;28;93657;-67
2023/05/06 05:27:14;;;;;;;;;;;18.50;63.40;;;;;;10279016;28;93890;-65
2023/05/06 05:32:16;;;;;;;;;;;18.50;63.60;;;;;;10272074;28;97024;-66
2023/05/06 05:37:17;;;;;;;;;;;18.50;63.60;;;;;;10291415;28;94406;-65
2023/05/06 05:42:19;;;;;;;;;;;18.50;63.60;;;;;;10292653;28;93462;-65
2023/05/06 05:52:23;;;;;;;;;;;18.50;63.70;;;;;;10249516;28;93486;-66
2023/05/06 05:57:25;;;;;;;;;;;18.50;63.60;;;;;;10251090;28;94096;-66
2023/05/06 06:02:27;;;;;;;;;;;18.50;63.70;;;;;;10249720;28;93404;-66
2023/05/06 06:07:29;;;;;;;;;;;18.50;63.70;;;;;;10251943;28;92621;-66
2023/05/06 06:12:30;;;;;;;;;;;18.60;63.90;;;;;;10249738;28;93251;-66
2023/05/06 06:17:32;;;;;;;;;;;18.50;64.00;;;;;;10250707;28;93464;-66
2023/05/06 06:22:34;;;;;;;;;;;18.60;64.10;;;;;;10230231;28;95500;-66
2023/05/06 06:27:35;;;;;;;;;;;18.60;64.10;;;;;;10250296;28;94400;-66
2023/05/06 06:32:45;;;;;;;;;;;18.60;64.30;;;;;;10250778;28;94786;-66
2023/05/06 06:37:47;;;;;;;;;;;18.60;64.30;;;;;;10250107;28;94677;-66
2023/05/06 06:42:50;;;;;;;;;;;18.60;64.40;;;;;;10249726;28;93986;-66
2023/05/06 06:47:51;;;;;;;;;;;18.70;64.40;;;;;;10249554;28;93635;-66
2023/05/06 06:52:53;;;;;;;;;;;18.70;64.40;;;;;;10231457;28;94243;-66
2023/05/06 06:57:55;;;;;;;;;;;18.70;64.40;;;;;;10249554;28;92608;-66
2023/05/06 07:02:57;;;;;;;;;;;18.80;64.50;;;;;;10249614;28;94575;-67
2023/05/06 07:07:58;;;;;;;;;;;18.80;65.20;;;;;;10248555;28;94613;-65
2023/05/06 07:13:00;;;;;;;;;;;18.80;65.60;;;;;;10246673;28;96976;-64
2023/05/06 07:18:02;;;;;;;;;;;18.80;66.50;;;;;;10248494;28;94349;-68
2023/05/06 07:23:04;;;;;;;;;;;18.90;66.50;;;;;;10230027;28;93580;-65
2023/05/06 07:28:07;;;;;;;;;;;18.90;67.10;;;;;;10248925;28;93753;-64
2023/05/06 07:33:08;;;;;;;;;;;18.90;67.20;;;;;;10249505;28;94394;-65
2023/05/06 07:38:10;;;;;;;;;;;19.00;67.40;;;;;;10247356;28;94640;-64
2023/05/06 07:43:12;;;;;;;;;;;19.00;67.90;;;;;;10247418;28;93302;-62
2023/05/06 07:48:14;;;;;;;;;;;19.10;68.00;;;;;;10247822;28;93696;-63
2023/05/06 07:53:16;;;;;;;;;;;19.10;67.80;;;;;;10247328;28;94644;-64
2023/05/06 07:58:18;;;;;;;;;;;19.10;67.50;;;;;;10229472;28;93096;-64
2023/05/06 08:03:20;;;;;;;;;;;19.10;67.40;;;;;;10243699;28;95881;-64
2023/05/06 08:08:22;;;;;;;;;;;19.00;67.20;;;;;;10225143;28;94478;-64
2023/05/06 08:13:27;;;;;;;;;;;19.00;67.10;;;;;;10199810;28;94799;-64
2023/05/06 08:18:29;;;;;;;;;;;19.00;67.20;;;;;;10201143;28;93491;-64
2023/05/06 08:23:31;;;;;;;;;;;18.90;67.10;;;;;;10201918;28;94409;-64
2023/05/06 08:28:33;;;;;;;;;;;18.90;67.10;;;;;;10206464;28;93330;-64
2023/05/06 08:33:34;;;;;;;;;;;18.90;67.00;;;;;;10206170;28;94879;-64
2023/05/06 08:38:36;;;;;;;;;;;18.90;67.00;;;;;;10213780;28;92915;-64
2023/05/06 08:43:42;;;;;;;;;;;18.90;67.00;;;;;;10212156;28;93233;-64
2023/05/06 08:48:44;;;;;;;;;;;19.00;66.90;;;;;;10221762;28;93757;-64
2023/05/06 08:53:47;;;;;;;;;;;19.00;66.80;;;;;;10232698;28;96829;-64
2023/05/06 08:58:50;;;;;;;;;;;19.00;66.80;;;;;;10253310;28;93281;-64
2023/05/06 09:03:52;;;;;;;;;;;19.00;66.80;;;;;;10252062;28;94834;-64
2023/05/06 09:08:53;;;;;;;;;;;19.00;66.70;;;;;;10253300;28;94503;-64
2023/05/06 09:14:11;;;;;;;;;;;18.90;66.60;;;;;;10252295;28;93594;-64
2023/05/06 09:19:13;;;;;;;;;;;18.90;66.70;;;;;;10251527;28;93537;-64
2023/05/06 09:24:15;;;;;;;;;;;18.90;66.60;;;;;;10252996;28;94535;-64
2023/05/06 09:29:17;;;;;;;;;;;18.90;66.60;;;;;;10252872;28;92277;-64
2023/05/06 09:34:20;;;;;;;;;;;19.00;66.70;;;;;;10251932;28;93468;-64
2023/05/06 09:39:25;;;;;;;;;;;18.90;66.60;;;;;;10251609;28;93385;-63
2023/05/06 09:44:27;;;;;;;;;;;19.00;66.60;;;;;;10249289;28;96169;-64
2023/05/06 09:49:30;;;;;;;;;;;19.00;66.50;;;;;;10231855;28;93884;-64
2023/05/06 09:54:32;;;;;;;;;;;19.10;66.40;;;;;;10233264;28;94196;-64
2023/05/06 09:59:34;;;;;;;;;;;19.10;66.20;;;;;;10250287;28;93685;-64
2023/05/06 10:04:38;;;;;;;;;;;19.10;66.20;;;;;;10251648;28;93897;-64
2023/05/06 10:09:40;;;;;;;;;;;19.10;66.10;;;;;;10250899;28;93999;-64
2023/05/06 10:14:42;;;;;;;;;;;19.10;66.00;;;;;;10251700;28;93594;-64
2023/05/06 10:19:45;;;;;;;;;;;19.20;66.10;;;;;;10250665;28;92515;-64
2023/05/06 10:25:02;;;;;;;;;;;19.20;65.90;;;;;;10250265;28;94034;-64
2023/05/06 10:30:04;;;;;;;;;;;19.30;65.90;;;;;;10232401;28;92969;-64
2023/05/06 10:35:11;;;;;;;;;;;19.30;66.70;;;;;;10229523;28;95937;-64
2023/05/06 10:40:13;;;;;;;;;;;19.40;65.60;;;;;;10250022;28;93754;-64
2023/05/06 10:45:15;;;;;;;;;;;19.40;65.40;;;;;;10249312;28;94463;-64
2023/05/06 10:50:17;;;;;;;;;;;19.40;65.40;;;;;;10248074;28;93643;-64
2023/05/06 10:55:28;;;;;;;;;;;19.40;65.40;;;;;;10249456;28;93709;-64
2023/05/06 11:00:31;;;;;;;;;;;19.30;65.40;;;;;;10248784;28;94633;-64
2023/05/06 11:05:48;;;;;;;;;;;19.30;65.50;;;;;;10250320;28;94066;-64
2023/05/06 11:10:51;;;;;;;;;;;19.20;65.60;;;;;;10249368;28;92890;-64
2023/05/06 11:15:56;;;;;;;;;;;19.20;65.60;;;;;;10249264;28;93421;-64
2023/05/06 11:21:04;;;;;;;;;;;19.10;65.60;;;;;;10248227;28;94485;-64
2023/05/06 11:26:06;;;;;;;;;;;19.20;65.70;;;;;;10245541;28;96052;-64
2023/05/06 11:31:08;;;;;;;;;;;19.20;65.70;;;;;;10247147;28;93348;-64
2023/05/06 11:36:13;;;;;;;;;;;19.20;65.60;;;;;;10248378;28;94413;-64
2023/05/06 11:41:15;;;;;;;;;;;19.20;65.70;;;;;;10248236;28;94531;-64
2023/05/06 11:46:18;;;;;;;;;;;19.20;65.70;;;;;;10229405;28;93531;-64
2023/05/06 11:51:22;;;;;;;;;;;19.20;65.70;;;;;;10247639;28;93699;-64
2023/05/06 11:56:24;;;;;;;;;;;19.10;65.70;;;;;;10248313;28;94460;-64
2023/05/06 12:01:26;;;;;;;;;;;19.10;65.80;;;;;;10248749;28;92621;-64
2023/05/06 12:06:32;;;;;;;;;;;19.10;65.80;;;;;;10248099;28;94810;-63
2023/05/06 12:11:34;;;;;;;;;;;19.10;65.80;;;;;;10252346;28;93551;-64
2023/05/06 12:16:36;;;;;;;;;;;19.10;65.80;;;;;;10252161;28;95944;-64
2023/05/06 12:21:38;;;;;;;;;;;19.20;65.90;;;;;;10253633;28;93556;-64
2023/05/06 12:26:44;;;;;;;;;;;19.20;65.90;;;;;;10236695;28;93451;-64
2023/05/06 12:31:46;;;;;;;;;;;19.20;65.90;;;;;;10254579;28;94585;-64
2023/05/06 12:36:47;;;;;;;;;;;19.10;65.80;;;;;;10253535;28;94665;-64
2023/05/06 12:41:49;;;;;;;;;;;19.10;65.90;;;;;;10253143;28;94933;-63
2023/05/06 12:46:54;;;;;;;;;;;19.10;65.90;;;;;;10253998;28;93448;-64
2023/05/06 12:52:05;;;;;;;;;;;19.10;65.90;;;;;;10251899;28;93035;-65
2023/05/06 12:57:07;;;;;;;;;;;19.10;65.90;;;;;;10248927;28;92927;-64
2023/05/06 13:02:09;;;;;;;;;;;19.10;66.00;;;;;;10251889;28;94427;-64
2023/05/06 13:07:10;;;;;;;;;;;19.20;66.00;;;;;;10250281;28;97124;-64
2023/05/06 13:12:12;;;;;;;;;;;19.20;66.00;;;;;;10253259;28;93533;-64
2023/05/06 13:17:14;;;;;;;;;;;19.20;66.00;;;;;;10252638;28;94451;-64
2023/05/06 13:22:16;;;;;;;;;;;19.20;66.00;;;;;;10251646;28;93547;-64
2023/05/06 13:27:17;;;;;;;;;;;19.20;65.90;;;;;;10252588;28;93512;-65
2023/05/06 13:32:19;;;;;;;;;;;19.20;65.90;;;;;;10251922;28;94453;-64
2023/05/06 13:37:21;;;;;;;;;;;19.30;66.00;;;;;;10251594;28;93629;-65
2023/05/06 13:42:23;;;;;;;;;;;19.30;65.90;;;;;;10252784;28;93349;-64
2023/05/06 13:47:25;;;;;;;;;;;19.30;65.80;;;;;;10250277;28;93421;-64
2023/05/06 13:52:27;;;;;;;;;;;19.30;65.80;;;;;;10251319;28;93446;-64
2023/05/06 13:57:29;;;;;;;;;;;19.30;65.80;;;;;;10231644;28;95972;-64
2023/05/06 14:02:30;;;;;;;;;;;19.30;65.80;;;;;;10250880;28;94429;-64
2023/05/06 14:07:32;;;;;;;;;;;19.30;65.80;;;;;;10251025;28;93671;-64
2023/05/06 14:12:34;;;;;;;;;;;19.30;65.80;;;;;;10232489;28;93605;-64
2023/05/06 14:17:37;;;;;;;;;;;19.30;65.90;;;;;;10250731;28;93526;-64
2023/05/06 14:22:39;;;;;;;;;;;19.30;65.80;;;;;;10232264;28;94239;-64
2023/05/06 14:27:41;;;;;;;;;;;19.20;65.80;;;;;;10247585;28;93768;-65
2023/05/06 14:32:43;;;;;;;;;;;19.20;65.80;;;;;;10249046;28;92757;-65
2023/05/06 14:37:44;;;;;;;;;;;19.20;65.80;;;;;;10250608;28;94454;-64
2023/05/06 14:42:46;;;;;;;;;;;19.30;66.90;;;;;;10249434;28;94469;-61
2023/05/06 14:47:48;;;;;;;;;;;19.40;68.20;;;;;;10244094;28;95842;-61
2023/05/06 14:52:50;;;;;;;;;;;19.50;67.70;;;;;;10231130;28;94375;-61
2023/05/06 14:57:52;;;;;;;;;;;19.50;67.60;;;;;;10248853;28;93489;-61
2023/05/06 15:02:53;;;;;;;;;;;19.60;67.70;;;;;;10247652;28;93935;-61
2023/05/06 15:07:55;;;;;;;;;;;19.60;67.80;;;;;;10248826;28;93093;-61
2023/05/06 15:12:57;;;;;;;;;;;19.60;67.90;;;;;;10249227;28;93102;-60
2023/05/06 15:17:58;;;;;;;;;;;19.60;68.00;;;;;;10248114;28;93544;-61
2023/05/06 15:23:00;;;;;;;;;;;19.60;68.20;;;;;;10249984;28;92167;-60
2023/05/06 15:28:03;;;;;;;;;;;19.60;68.30;;;;;;10247054;28;93420;-61
2023/05/06 15:33:04;;;;;;;;;;;19.60;68.40;;;;;;10247392;28;93476;-60
2023/05/06 15:38:06;;;;;;;;;;;19.60;68.50;;;;;;10245618;28;96741;-60
2023/05/06 15:43:08;;;;;;;;;;;19.60;68.90;;;;;;10247233;28;93499;-60
2023/05/06 15:48:11;;;;;;;;;;;19.70;68.60;;;;;;10247059;28;93618;-60
2023/05/06 15:53:13;;;;;;;;;;;19.70;68.50;;;;;;10247189;28;94460;-61
2023/05/06 15:58:15;;;;;;;;;;;19.70;68.70;;;;;;10246796;28;93255;-60
2023/05/06 16:03:17;;;;;;;;;;;19.80;69.00;;;;;;10246586;28;92893;-61
2023/05/06 16:08:19;;;;;;;;;;;19.80;69.10;;;;;;10246693;28;94322;-60
2023/05/06 16:13:20;;;;;;;;;;;19.90;68.80;;;;;;10248050;28;93677;-60
2023/05/06 16:18:22;;;;;;;;;;;19.90;68.60;;;;;;10229048;28;94575;-61
2023/05/06 16:23:25;;;;;;;;;;;19.90;69.10;;;;;;10246706;28;92863;-61
2023/05/06 16:28:27;;;;;;;;;;;19.90;69.20;;;;;;10243581;28;96086;-64
2023/05/06 16:33:28;;;;;;;;;;;20.00;69.30;;;;;;10246534;28;93398;-64
2023/05/06 16:38:30;;;;;;;;;;;20.00;68.60;;;;;;10245088;28;94833;-64
2023/05/06 16:43:32;;;;;;;;;;;20.00;68.70;;;;;;10246195;28;94030;-64
2023/05/06 16:48:34;;;;;;;;;;;20.00;68.10;;;;;;10211917;28;93315;-64
2023/05/06 16:53:36;;;;;;;;;;;20.00;67.90;;;;;;10245312;28;92719;-63
2023/05/06 16:58:38;;;;;;;;;;;20.10;67.80;;;;;;10233026;28;93553;-64
2023/05/06 17:03:39;;;;;;;;;;;20.10;67.60;;;;;;10235621;28;93758;-64
2023/05/06 17:08:41;;;;;;;;;;;20.10;68.40;;;;;;10234491;28;94285;-64
2023/05/06 17:13:43;;;;;;;;;;;20.10;68.50;;;;;;10252554;28;94521;-64
2023/05/06 17:18:44;;;;;;;;;;;20.10;67.80;;;;;;10249013;28;95846;-64
2023/05/06 17:23:46;;;;;;;;;;;20.00;67.20;;;;;;10251328;28;93073;-65
2023/05/06 17:28:49;;;;;;;;;;;20.00;66.50;;;;;;10251031;28;93169;-64
2023/05/06 17:33:51;;;;;;;;;;;19.90;66.20;;;;;;10249800;28;93504;-64
2023/05/06 17:39:03;;;;;;;;;;;19.80;66.30;;;;;;10249406;28;92893;-64
2023/05/06 17:44:05;;;;;;;;;;;19.80;67.50;;;;;;10251042;28;94490;-65
2023/05/06 17:49:07;;;;;;;;;;;19.90;67.80;;;;;;10251077;28;94468;-65
2023/05/06 17:54:09;;;;;;;;;;;19.90;68.10;;;;;;10251494;28;93141;-65
2023/05/06 17:59:10;;;;;;;;;;;19.90;68.20;;;;;;10250574;28;94046;-63
2023/05/06 18:04:12;;;;;;;;;;;19.90;68.40;;;;;;10250066;28;93395;-63
2023/05/06 18:09:14;;;;;;;;;;;19.90;68.40;;;;;;10247499;28;96749;-62
2023/05/06 18:14:16;;;;;;;;;;;19.90;68.70;;;;;;10250950;28;93381;-63
2023/05/06 18:19:17;;;;;;;;;;;19.90;68.80;;;;;;10248296;28;94536;-63
2023/05/06 18:24:19;;;;;;;;;;;19.90;68.70;;;;;;10249925;28;94377;-63
2023/05/06 18:29:21;;;;;;;;;;;19.80;69.90;;;;;;10249955;28;92656;-63
2023/05/06 18:34:23;;;;;;;;;;;19.80;69.00;;;;;;10247941;28;94524;-64
2023/05/06 18:39:25;;;;;;;;;;;19.70;69.00;;;;;;10247120;28;94460;-63
2023/05/06 18:44:27;;;;;;;;;;;19.70;70.30;;;;;;10290367;28;92816;-63
2023/05/06 18:49:29;;;;;;;;;;;19.70;69.70;;;;;;10288008;28;93753;-63
2023/05/06 18:54:31;;;;;;;;;;;19.70;69.90;;;;;;10289189;28;94308;-63
2023/05/06 18:59:33;;;;;;;;;;;19.70;70.20;;;;;;10285934;28;97170;-63
2023/05/06 19:04:35;;;;;;;;;;;19.70;70.40;;;;;;10287468;28;94532;-63
2023/05/06 19:09:37;;;;;;;;;;;19.70;70.40;;;;;;10288352;28;94240;-63
2023/05/06 19:14:39;;;;;;;;;;;19.60;71.30;;;;;;10288024;28;93517;-63
2023/05/06 19:19:40;;;;;;;;;;;19.60;70.30;;;;;;10287346;28;93328;-63
2023/05/06 19:24:42;;;;;;;;;;;19.60;70.40;;;;;;10287796;28;93466;-63
2023/05/06 19:29:44;;;;;;;;;;;19.60;70.60;;;;;;10287943;28;94569;-63
2023/05/06 19:34:45;;;;;;;;;;;19.60;70.50;;;;;;10271370;28;93597;-63
2023/05/06 19:39:48;;;;;;;;;;;19.60;70.70;;;;;;10270899;28;93439;-63
2023/05/06 19:44:50;;;;;;;;;;;19.60;70.90;;;;;;10286297;28;94530;-63
2023/05/06 19:49:52;;;;;;;;;;;19.70;70.90;;;;;;10265474;28;95732;-63
2023/05/06 19:54:53;;;;;;;;;;;19.60;70.90;;;;;;10287806;28;93217;-63
2023/05/06 19:59:55;;;;;;;;;;;19.70;71.00;;;;;;10286660;28;93497;-63
2023/05/06 20:04:57;;;;;;;;;;;19.70;71.00;;;;;;10286924;28;93635;-62
2023/05/06 20:09:59;;;;;;;;;;;19.70;71.00;;;;;;10286681;28;93318;-63
2023/05/06 20:15:02;;;;;;;;;;;19.70;71.10;;;;;;10286470;28;93655;-63
2023/05/06 20:20:08;;;;;;;;;;;19.70;71.00;;;;;;10286964;28;93641;-63
2023/05/06 20:25:11;;;;;;;;;;;19.70;71.10;;;;;;10287342;28;93704;-63
2023/05/06 20:30:13;;;;;;;;;;;19.70;71.10;;;;;;10270562;28;93633;-63
2023/05/06 20:35:16;;;;;;;;;;;19.70;71.20;;;;;;10275862;28;94121;-64
2023/05/06 20:40:18;;;;;;;;;;;19.70;71.20;;;;;;10290237;28;95922;-62
2023/05/06 20:45:19;;;;;;;;;;;19.70;70.90;;;;;;10293478;28;94454;-63
2023/05/06 20:50:21;;;;;;;;;;;19.70;71.00;;;;;;10292132;28;94275;-63
2023/05/06 20:55:24;;;;;;;;;;;19.70;71.10;;;;;;10293268;28;94614;-63
2023/05/06 21:00:25;;;;;;;;;;;19.70;71.10;;;;;;10293961;28;94393;-62
2023/05/06 21:05:27;;;;;;;;;;;19.70;71.20;;;;;;10292015;28;94165;-63
2023/05/06 21:10:29;;;;;;;;;;;19.70;71.10;;;;;;10293594;28;95092;-63
2023/05/06 21:15:32;;;;;;;;;;;19.70;71.00;;;;;;10293264;28;92967;-63
2023/05/06 21:20:34;;;;;;;;;;;19.70;71.00;;;;;;10274554;28;93499;-63
2023/05/06 21:25:36;;;;;;;;;;;19.60;71.00;;;;;;10292273;28;93014;-63
2023/05/06 21:30:38;;;;;;;;;;;19.60;70.90;;;;;;10272216;28;96950;-63
2023/05/06 21:35:40;;;;;;;;;;;19.60;70.90;;;;;;10290695;28;94068;-62
2023/05/06 21:40:42;;;;;;;;;;;19.60;70.90;;;;;;10292168;28;95059;-62
2023/05/06 21:45:43;;;;;;;;;;;19.50;70.80;;;;;;10291552;28;94743;-62
2023/05/06 21:50:45;;;;;;;;;;;19.50;70.90;;;;;;10274397;28;94718;-63
2023/05/06 21:55:47;;;;;;;;;;;19.50;70.90;;;;;;10291970;28;93289;-62
2023/05/06 22:00:49;;;;;;;;;;;19.50;70.80;;;;;;10291289;28;94262;-62
2023/05/06 22:05:51;;;;;;;;;;;19.50;70.80;;;;;;10291844;28;93335;-62
2023/05/06 22:10:53;;;;;;;;;;;19.40;70.70;;;;;;10291576;28;93926;-63
2023/05/06 22:15:54;;;;;;;;;;;19.40;70.60;;;;;;10272460;28;93566;-63
2023/05/06 22:20:57;;;;;;;;;;;19.40;70.60;;;;;;10287957;28;96497;-62
2023/05/06 22:25:59;;;;;;;;;;;19.40;70.60;;;;;;10290981;28;94522;-63
2023/05/06 22:31:01;;;;;;;;;;;19.40;70.60;;;;;;10289938;28;94825;-63
2023/05/06 22:36:03;;;;;;;;;;;19.40;70.50;;;;;;10289949;28;94419;-57
2023/05/06 22:41:04;;;;;;;;;;;19.30;70.50;;;;;;10290211;28;93682;-62
2023/05/06 22:46:06;;;;;;;;;;;19.30;70.30;;;;;;10290270;28;93911;-62
2023/05/06 22:51:08;;;;;;;;;;;19.30;70.40;;;;;;10290189;28;94550;-63
2023/05/06 22:56:10;;;;;;;;;;;19.40;70.40;;;;;;10290242;28;92681;-61
2023/05/06 23:01:12;;;;;;;;;;;19.40;70.30;;;;;;10289107;28;93208;-63
2023/05/06 23:06:14;;;;;;;;;;;19.30;70.20;;;;;;10289411;28;93784;-63
2023/05/06 23:11:16;;;;;;;;;;;19.30;70.20;;;;;;10287209;28;96718;-62
2023/05/06 23:16:18;;;;;;;;;;;19.40;70.20;;;;;;10289472;28;93486;-63
2023/05/06 23:21:19;;;;;;;;;;;19.40;70.10;;;;;;10288827;28;93642;-63
2023/05/06 23:26:21;;;;;;;;;;;19.30;70.00;;;;;;10288555;28;93880;-62
2023/05/06 23:31:23;;;;;;;;;;;19.30;70.00;;;;;;10287253;28;93582;-62
2023/05/06 23:36:26;;;;;;;;;;;19.40;70.00;;;;;;10288428;28;93476;-62
2023/05/06 23:41:27;;;;;;;;;;;19.40;70.00;;;;;;10288664;28;93775;-62
2023/05/06 23:46:29;;;;;;;;;;;19.40;69.90;;;;;;10290873;28;92995;-62
2023/05/06 23:51:31;;;;;;;;;;;19.40;69.80;;;;;;10288550;28;93739;-62
2023/05/06 23:56:33;;;;;;;;;;;19.30;69.70;;;;;;10288336;28;94890;-62
